Time;durP1;ratioP1;P1;durP2;ratioP2;P2;SDS_P1;SDS_P2;PMS_P1;PMS_P2;Temp;Humidity;BMP_temperature;BMP_pressure;BME280_temperature;BME280_humidity;BME280_pressure;Samples;Min_cycle;Max_cycle;Signal;HPM_P1;HPM_P2
2022/01/11 00:01:18;;;;;;;;;;;-2.70;99.80;;;;;;5018923;28;20004;-90
2022/01/11 00:03:44;;;;;;;;;;;-2.80;99.60;;;;;;5036290;28;19916;-90
2022/01/11 00:06:29;;;;;;;;;;;-2.80;99.90;;;;;;5018568;28;20275;-89
2022/01/11 00:09:00;;;;;;;;;;;-2.80;99.90;;;;;;5018330;28;20422;-90
2022/01/11 00:11:26;;;;;;;;;;;-2.90;99.90;;;;;;5018077;28;19964;-90
2022/01/11 00:13:52;;;;;;;;;;;-2.80;99.90;;;;;;5018196;28;19921;-90
2022/01/11 00:16:17;;;;;;;;;;;-2.80;99.80;;;;;;5018083;28;19913;-89
2022/01/11 00:18:43;;;;;;;;;;;-2.90;99.90;;;;;;5017148;28;19917;-90
2022/01/11 00:21:09;;;;;;;;;;;-2.90;99.90;;;;;;5018037;28;19916;-90
2022/01/11 00:26:00;;;;;;;;;;;-2.80;99.90;;;;;;5035475;28;19916;-90
2022/01/11 00:28:26;;;;;;;;;;;-2.80;99.80;;;;;;5018298;28;19917;-90
2022/01/11 00:30:53;;;;;;;;;;;-2.80;99.30;;;;;;5017954;28;19913;-90
2022/01/11 00:33:25;;;;;;;;;;;-2.80;98.70;;;;;;5017409;28;19995;-89
2022/01/11 00:36:02;;;;;;;;;;;-2.90;98.70;;;;;;5017933;28;20296;-90
2022/01/11 00:38:32;;;;;;;;;;;-2.90;99.50;;;;;;5017897;28;19916;-90
2022/01/11 00:40:59;;;;;;;;;;;-2.90;99.50;;;;;;5017734;28;19909;-90
2022/01/11 00:43:25;;;;;;;;;;;-2.90;99.30;;;;;;5035368;28;19909;-89
2022/01/11 00:45:52;;;;;;;;;;;-3.00;99.70;;;;;;5017601;28;19913;-90
2022/01/11 00:48:18;;;;;;;;;;;-3.00;99.40;;;;;;5017653;28;20253;-90
2022/01/11 00:50:44;;;;;;;;;;;-3.00;99.40;;;;;;5017782;28;19909;-89
2022/01/11 00:53:10;;;;;;;;;;;-3.00;99.20;;;;;;5017368;28;19913;-90
2022/01/11 00:55:35;;;;;;;;;;;-3.10;99.40;;;;;;5017782;28;19959;-90
2022/01/11 00:58:05;;;;;;;;;;;-3.00;99.70;;;;;;5017767;28;20412;-90
2022/01/11 01:00:32;;;;;;;;;;;-3.00;99.80;;;;;;5017673;28;19910;-89
2022/01/11 01:02:57;;;;;;;;;;;-3.10;99.70;;;;;;5017616;28;19909;-90
2022/01/11 01:05:23;;;;;;;;;;;-3.10;99.60;;;;;;5017904;28;19999;-90
2022/01/11 01:07:49;;;;;;;;;;;-3.10;99.80;;;;;;5017377;28;19909;-89
2022/01/11 01:10:39;;;;;;;;;;;-3.00;99.30;;;;;;5017262;28;19917;-89
2022/01/11 01:13:04;;;;;;;;;;;-3.10;98.90;;;;;;5034259;28;19921;-90
2022/01/11 01:15:30;;;;;;;;;;;-3.10;99.60;;;;;;5017767;28;20376;-90
2022/01/11 01:17:56;;;;;;;;;;;-3.00;99.10;;;;;;5017054;28;19932;-89
2022/01/11 01:20:21;;;;;;;;;;;-3.00;98.60;;;;;;5017364;28;19909;-90
2022/01/11 01:22:50;;;;;;;;;;;-3.00;99.40;;;;;;5017673;28;19956;-90
2022/01/11 01:25:20;;;;;;;;;;;-3.00;99.30;;;;;;5017797;28;19916;-90
2022/01/11 01:27:49;;;;;;;;;;;-3.00;98.60;;;;;;5035357;28;19952;-89
2022/01/11 01:30:17;;;;;;;;;;;-3.00;98.80;;;;;;5018112;28;19921;-90
2022/01/11 01:32:43;;;;;;;;;;;-3.00;98.90;;;;;;5038825;28;19928;-90
2022/01/11 01:35:09;;;;;;;;;;;-3.00;99.10;;;;;;5021625;28;20000;-90
2022/01/11 01:37:36;;;;;;;;;;;-3.10;98.80;;;;;;5021012;28;20007;-89
2022/01/11 01:40:02;;;;;;;;;;;-3.10;99.20;;;;;;5020897;28;19915;-89
2022/01/11 01:42:30;;;;;;;;;;;-3.00;99.40;;;;;;5020928;28;19916;-90
2022/01/11 01:44:56;;;;;;;;;;;-3.00;99.50;;;;;;5047930;28;19955;-90
2022/01/11 01:47:21;;;;;;;;;;;-2.90;99.40;;;;;;5029918;28;20369;-90
2022/01/11 01:49:47;;;;;;;;;;;-2.90;99.30;;;;;;5048835;28;19940;-89
2022/01/11 01:52:14;;;;;;;;;;;-2.90;99.70;;;;;;5032477;28;19948;-90
2022/01/11 01:54:40;;;;;;;;;;;-2.80;99.40;;;;;;5029506;28;19915;-89
2022/01/11 01:57:06;;;;;;;;;;;-2.80;99.50;;;;;;5021453;28;19967;-90
2022/01/11 01:59:32;;;;;;;;;;;-2.80;99.00;;;;;;5038596;28;19913;-90
2022/01/11 02:01:58;;;;;;;;;;;-2.80;99.10;;;;;;5020965;28;20403;-89
2022/01/11 02:04:24;;;;;;;;;;;-2.90;99.10;;;;;;5021039;28;19910;-89
2022/01/11 02:06:50;;;;;;;;;;;-2.90;98.90;;;;;;5020732;28;20327;-90
2022/01/11 02:09:16;;;;;;;;;;;-2.90;99.40;;;;;;5021056;28;19923;-89
2022/01/11 02:11:41;;;;;;;;;;;-2.90;98.90;;;;;;5020562;28;19909;-90
2022/01/11 02:14:07;;;;;;;;;;;-2.90;98.20;;;;;;5020421;28;19916;-90
2022/01/11 02:16:33;;;;;;;;;;;-2.90;98.70;;;;;;5020362;28;20008;-89
2022/01/11 02:18:58;;;;;;;;;;;-2.80;98.60;;;;;;5020404;28;19917;-89
2022/01/11 02:21:24;;;;;;;;;;;-2.90;98.50;;;;;;5020309;28;20291;-90
2022/01/11 02:23:50;;;;;;;;;;;-2.90;98.90;;;;;;5019967;28;20406;-90
2022/01/11 02:26:16;;;;;;;;;;;-2.80;98.20;;;;;;5020173;28;19916;-90
2022/01/11 02:28:41;;;;;;;;;;;-2.90;98.00;;;;;;5019573;28;19979;-89
2022/01/11 02:31:12;;;;;;;;;;;-2.90;97.80;;;;;;5019717;28;19910;-90
2022/01/11 02:33:41;;;;;;;;;;;-2.90;98.10;;;;;;5020351;28;19915;-90
2022/01/11 02:36:15;;;;;;;;;;;-3.00;98.00;;;;;;5020118;28;19952;-90
2022/01/11 02:38:40;;;;;;;;;;;-3.00;97.80;;;;;;5019786;28;19909;-89
2022/01/11 02:41:06;;;;;;;;;;;-3.00;97.80;;;;;;5037167;28;19909;-90
2022/01/11 02:43:32;;;;;;;;;;;-3.10;98.00;;;;;;5018859;28;19913;-90
2022/01/11 02:46:01;;;;;;;;;;;-3.00;98.00;;;;;;5020048;28;19935;-90
2022/01/11 02:48:27;;;;;;;;;;;-3.10;98.00;;;;;;5037156;28;20372;-90
2022/01/11 02:50:53;;;;;;;;;;;-3.10;97.90;;;;;;5019884;28;19980;-90
2022/01/11 02:53:18;;;;;;;;;;;-3.10;98.10;;;;;;5019804;28;19913;-91
2022/01/11 02:55:44;;;;;;;;;;;-3.10;98.50;;;;;;5018935;28;19910;-90
2022/01/11 02:58:10;;;;;;;;;;;-3.10;98.30;;;;;;5019645;28;19985;-90
2022/01/11 03:00:38;;;;;;;;;;;-3.10;98.10;;;;;;5020051;28;19992;-90
2022/01/11 03:03:15;;;;;;;;;;;-3.20;97.90;;;;;;5019664;28;20008;-90
2022/01/11 03:05:44;;;;;;;;;;;-3.20;98.20;;;;;;5019169;28;19970;-89
2022/01/11 03:08:11;;;;;;;;;;;-3.20;98.40;;;;;;5019373;28;20024;-90
2022/01/11 03:10:36;;;;;;;;;;;-3.20;98.40;;;;;;5036727;28;20265;-90
2022/01/11 03:13:03;;;;;;;;;;;-3.20;98.60;;;;;;5018882;28;19928;-90
2022/01/11 03:15:29;;;;;;;;;;;-3.10;98.00;;;;;;5019062;28;19917;-90
2022/01/11 03:17:54;;;;;;;;;;;-3.10;97.50;;;;;;5019066;28;19971;-90
2022/01/11 03:20:20;;;;;;;;;;;-3.10;97.70;;;;;;5019046;28;19909;-89
2022/01/11 03:22:46;;;;;;;;;;;-3.00;97.60;;;;;;5018314;28;19909;-90
2022/01/11 03:25:12;;;;;;;;;;;-3.00;96.90;;;;;;5018953;28;19909;-90
2022/01/11 03:27:38;;;;;;;;;;;-3.00;96.80;;;;;;5018742;28;20268;-90
2022/01/11 03:30:04;;;;;;;;;;;-3.00;97.00;;;;;;5036162;28;19917;-89
2022/01/11 03:32:30;;;;;;;;;;;-2.90;96.80;;;;;;5018942;28;19916;-90
2022/01/11 03:34:56;;;;;;;;;;;-2.90;97.10;;;;;;5018678;28;20387;-90
2022/01/11 03:37:21;;;;;;;;;;;-2.80;97.20;;;;;;5018814;28;19909;-90
2022/01/11 03:39:47;;;;;;;;;;;-2.80;96.20;;;;;;5018801;28;19945;-90
2022/01/11 03:42:13;;;;;;;;;;;-2.80;96.40;;;;;;5018960;28;19915;-90
2022/01/11 03:44:39;;;;;;;;;;;-2.90;95.60;;;;;;5018174;28;19920;-89
2022/01/11 03:47:05;;;;;;;;;;;-2.90;96.30;;;;;;5018152;28;20303;-90
2022/01/11 03:49:31;;;;;;;;;;;-2.90;95.90;;;;;;5018775;28;20337;-90
2022/01/11 03:51:56;;;;;;;;;;;-2.90;95.90;;;;;;5018462;28;19955;-89
2022/01/11 03:54:26;;;;;;;;;;;-2.90;96.50;;;;;;5018053;28;19956;-90
2022/01/11 03:56:51;;;;;;;;;;;-2.90;96.90;;;;;;5018376;28;20264;-90
2022/01/11 03:59:18;;;;;;;;;;;-2.90;96.20;;;;;;5018225;28;19909;-90
2022/01/11 04:01:43;;;;;;;;;;;-2.90;96.70;;;;;;5018007;28;19916;-90
2022/01/11 04:04:09;;;;;;;;;;;-2.90;96.10;;;;;;5035671;28;19913;-90
2022/01/11 04:06:35;;;;;;;;;;;-2.80;96.70;;;;;;5017859;28;19959;-90
2022/01/11 04:09:02;;;;;;;;;;;-2.80;96.50;;;;;;5017428;28;19917;-89
2022/01/11 04:11:28;;;;;;;;;;;-2.80;96.20;;;;;;5017676;28;20367;-90
2022/01/11 04:13:53;;;;;;;;;;;-2.70;95.90;;;;;;4997696;28;19922;-90
2022/01/11 04:16:19;;;;;;;;;;;-2.70;96.10;;;;;;4995657;28;19937;-89
2022/01/11 04:18:45;;;;;;;;;;;-2.70;95.90;;;;;;4996487;28;19917;-90
2022/01/11 04:21:10;;;;;;;;;;;-2.70;95.50;;;;;;4996364;28;19916;-90
2022/01/11 04:23:36;;;;;;;;;;;-2.70;95.50;;;;;;4995116;28;19961;-90
2022/01/11 04:26:02;;;;;;;;;;;-2.70;95.20;;;;;;5028301;28;19910;-90
2022/01/11 04:28:28;;;;;;;;;;;-2.70;95.20;;;;;;4995214;28;19910;-89
2022/01/11 04:30:59;;;;;;;;;;;-2.80;95.30;;;;;;4994392;28;19910;-90
2022/01/11 04:33:29;;;;;;;;;;;-2.80;95.90;;;;;;4994782;28;19917;-90
2022/01/11 04:35:55;;;;;;;;;;;-2.80;96.00;;;;;;4994889;28;20361;-89
2022/01/11 04:38:22;;;;;;;;;;;-2.80;96.30;;;;;;4995119;28;19921;-90
2022/01/11 04:40:48;;;;;;;;;;;-2.80;96.70;;;;;;4996006;28;19985;-90
2022/01/11 04:43:13;;;;;;;;;;;-2.80;96.40;;;;;;4995306;28;19996;-90
2022/01/11 04:45:39;;;;;;;;;;;-2.80;96.60;;;;;;4994782;28;20000;-90
2022/01/11 04:48:05;;;;;;;;;;;-2.90;97.00;;;;;;4995877;28;19909;-90
2022/01/11 04:50:31;;;;;;;;;;;-2.90;97.20;;;;;;4994789;28;19918;-90
2022/01/11 04:52:57;;;;;;;;;;;-2.90;97.30;;;;;;4994629;28;19961;-90
2022/01/11 04:55:23;;;;;;;;;;;-3.00;97.50;;;;;;4994664;28;20000;-90
2022/01/11 04:57:49;;;;;;;;;;;-3.00;97.40;;;;;;4994987;28;19921;-90
2022/01/11 05:00:16;;;;;;;;;;;-3.00;97.80;;;;;;4995070;28;19910;-89
2022/01/11 05:02:42;;;;;;;;;;;-3.00;97.80;;;;;;4994829;28;19922;-89
2022/01/11 05:05:07;;;;;;;;;;;-3.00;97.80;;;;;;4995091;28;20293;-90
2022/01/11 05:07:33;;;;;;;;;;;-3.00;98.00;;;;;;4999115;28;19917;-90
2022/01/11 05:09:59;;;;;;;;;;;-3.00;98.20;;;;;;4998964;28;19918;-90
2022/01/11 05:12:24;;;;;;;;;;;-3.00;98.10;;;;;;4998128;28;19922;-90
2022/01/11 05:14:50;;;;;;;;;;;-2.90;98.10;;;;;;4998902;28;19977;-89
2022/01/11 05:17:16;;;;;;;;;;;-2.90;98.20;;;;;;4999075;28;20013;-90
2022/01/11 05:19:41;;;;;;;;;;;-3.00;98.10;;;;;;4997880;28;19935;-90
2022/01/11 05:22:07;;;;;;;;;;;-2.90;98.30;;;;;;4997871;28;19910;-90
2022/01/11 05:24:32;;;;;;;;;;;-3.00;98.10;;;;;;4998693;28;20408;-90
2022/01/11 05:26:58;;;;;;;;;;;-3.00;97.90;;;;;;4998147;28;20373;-90
2022/01/11 05:29:23;;;;;;;;;;;-3.00;98.00;;;;;;4998105;28;20074;-89
2022/01/11 05:31:49;;;;;;;;;;;-3.00;98.20;;;;;;5004526;28;20041;-89
2022/01/11 05:34:15;;;;;;;;;;;-2.90;98.30;;;;;;5005095;28;20444;-91
2022/01/11 05:36:40;;;;;;;;;;;-3.00;98.00;;;;;;5004258;28;19910;-90
2022/01/11 05:39:06;;;;;;;;;;;-2.90;98.20;;;;;;5034443;28;20337;-90
2022/01/11 05:41:32;;;;;;;;;;;-2.90;98.20;;;;;;5031396;28;19913;-89
2022/01/11 05:43:57;;;;;;;;;;;-2.90;98.10;;;;;;4998596;28;19916;-90
2022/01/11 05:46:23;;;;;;;;;;;-2.90;98.20;;;;;;4998467;28;19910;-90
2022/01/11 05:48:48;;;;;;;;;;;-2.90;97.90;;;;;;4997797;28;19925;-91
2022/01/11 05:51:15;;;;;;;;;;;-2.90;97.70;;;;;;4997074;28;19917;-91
2022/01/11 05:53:41;;;;;;;;;;;-2.90;98.00;;;;;;4998444;28;19910;-91
2022/01/11 05:56:07;;;;;;;;;;;-2.90;97.70;;;;;;4998782;28;20000;-90
2022/01/11 05:58:32;;;;;;;;;;;-2.90;97.60;;;;;;4997845;28;19957;-90
2022/01/11 06:00:58;;;;;;;;;;;-2.90;97.80;;;;;;4997882;28;19921;-91
2022/01/11 06:03:23;;;;;;;;;;;-3.00;98.10;;;;;;4998563;28;19910;-90
2022/01/11 06:05:49;;;;;;;;;;;-2.90;97.60;;;;;;4997372;28;20404;-90
2022/01/11 06:08:16;;;;;;;;;;;-2.90;97.80;;;;;;4997854;28;19910;-90
2022/01/11 06:10:43;;;;;;;;;;;-2.90;98.10;;;;;;4997527;28;20391;-90
2022/01/11 06:13:11;;;;;;;;;;;-2.90;97.70;;;;;;4997056;28;19921;-90
2022/01/11 06:15:37;;;;;;;;;;;-2.80;97.80;;;;;;4997286;28;19918;-90
2022/01/11 06:18:04;;;;;;;;;;;-2.80;97.60;;;;;;4997423;28;19910;-90
2022/01/11 06:20:29;;;;;;;;;;;-2.80;97.90;;;;;;4996799;28;19913;-90
2022/01/11 06:22:58;;;;;;;;;;;-2.80;97.50;;;;;;4997119;28;20079;-90
2022/01/11 06:25:24;;;;;;;;;;;-2.80;97.60;;;;;;4996828;28;20369;-90
2022/01/11 06:27:50;;;;;;;;;;;-2.80;97.20;;;;;;4997432;28;20020;-91
2022/01/11 06:30:16;;;;;;;;;;;-2.90;97.70;;;;;;4997211;28;19918;-91
2022/01/11 06:32:45;;;;;;;;;;;-2.90;98.00;;;;;;4997980;28;20433;-91
2022/01/11 06:35:14;;;;;;;;;;;-2.90;97.90;;;;;;4997350;28;19956;-92
2022/01/11 06:37:39;;;;;;;;;;;-2.90;97.80;;;;;;4997606;28;19961;-91
2022/01/11 06:40:08;;;;;;;;;;;-2.90;97.80;;;;;;4997538;28;19910;-91
2022/01/11 06:42:34;;;;;;;;;;;-2.90;98.10;;;;;;4998918;28;19917;-91
2022/01/11 06:45:00;;;;;;;;;;;-2.90;98.00;;;;;;4998218;28;19909;-90
2022/01/11 06:47:25;;;;;;;;;;;-2.90;97.80;;;;;;4999365;28;19910;-92
2022/01/11 06:49:51;;;;;;;;;;;-3.00;97.90;;;;;;4999343;28;19925;-91
2022/01/11 06:52:17;;;;;;;;;;;-3.00;97.80;;;;;;4997540;28;19910;-91
2022/01/11 06:54:42;;;;;;;;;;;-3.00;98.30;;;;;;4996803;28;19920;-91
2022/01/11 06:57:08;;;;;;;;;;;-3.00;98.50;;;;;;5029341;28;19910;-90
2022/01/11 06:59:37;;;;;;;;;;;-3.00;98.80;;;;;;4997342;28;19914;-91
2022/01/11 07:02:03;;;;;;;;;;;-3.00;98.50;;;;;;4997619;28;19914;-91
2022/01/11 07:04:29;;;;;;;;;;;-3.00;98.70;;;;;;4996094;28;20432;-92
2022/01/11 07:06:54;;;;;;;;;;;-3.00;98.70;;;;;;4996732;28;19921;-90
2022/01/11 07:09:20;;;;;;;;;;;-2.90;98.80;;;;;;4997225;28;20024;-90
2022/01/11 07:11:46;;;;;;;;;;;-2.90;99.20;;;;;;4998211;28;19910;-90
2022/01/11 07:14:11;;;;;;;;;;;-2.90;99.00;;;;;;5036593;28;19917;-90
2022/01/11 07:16:37;;;;;;;;;;;-3.00;98.90;;;;;;5019256;28;19948;-91
2022/01/11 07:19:03;;;;;;;;;;;-3.00;99.20;;;;;;5020227;28;20280;-91
2022/01/11 07:21:29;;;;;;;;;;;-3.00;99.20;;;;;;5029809;28;19909;-90
2022/01/11 07:23:54;;;;;;;;;;;-2.90;98.60;;;;;;5051574;28;19909;-90
2022/01/11 07:26:20;;;;;;;;;;;-3.00;98.80;;;;;;5033259;28;19916;-90
2022/01/11 07:28:46;;;;;;;;;;;-3.00;98.70;;;;;;5018846;28;19989;-90
2022/01/11 07:31:11;;;;;;;;;;;-3.00;98.30;;;;;;5018828;28;19917;-91
2022/01/11 07:33:37;;;;;;;;;;;-3.10;98.40;;;;;;5018618;28;20371;-91
2022/01/11 07:36:03;;;;;;;;;;;-3.10;98.70;;;;;;5018292;28;20332;-91
2022/01/11 07:38:29;;;;;;;;;;;-3.10;98.70;;;;;;5018362;28;19924;-91
2022/01/11 07:40:54;;;;;;;;;;;-3.10;98.40;;;;;;5018465;28;19916;-91
2022/01/11 07:43:20;;;;;;;;;;;-3.00;98.80;;;;;;5017600;28;19929;-91
2022/01/11 07:45:45;;;;;;;;;;;-2.90;99.20;;;;;;5018336;28;19913;-91
2022/01/11 07:48:11;;;;;;;;;;;-2.80;99.50;;;;;;5017840;28;19959;-90
2022/01/11 07:50:37;;;;;;;;;;;-2.90;97.30;;;;;;5018215;28;20349;-90
2022/01/11 07:53:05;;;;;;;;;;;-2.90;98.60;;;;;;5036153;28;20055;-90
2022/01/11 07:55:48;;;;;;;;;;;-2.90;97.90;;;;;;5017319;28;19960;-90
2022/01/11 07:58:14;;;;;;;;;;;-2.80;98.60;;;;;;5037434;28;19937;-90
2022/01/11 08:00:39;;;;;;;;;;;-2.80;98.20;;;;;;5019281;28;19909;-90
2022/01/11 08:03:05;;;;;;;;;;;-2.80;97.70;;;;;;5019723;28;19916;-90
2022/01/11 08:05:31;;;;;;;;;;;-2.80;97.60;;;;;;5019375;28;19910;-90
2022/01/11 08:07:56;;;;;;;;;;;-2.80;98.20;;;;;;5019218;28;19948;-90
2022/01/11 08:10:22;;;;;;;;;;;-2.70;97.80;;;;;;5019095;28;20279;-90
2022/01/11 08:12:47;;;;;;;;;;;-2.80;97.50;;;;;;5017836;28;20024;-91
2022/01/11 08:15:13;;;;;;;;;;;-2.70;98.20;;;;;;5016878;28;19917;-91
2022/01/11 08:17:39;;;;;;;;;;;-2.70;97.30;;;;;;5017532;28;19952;-90
2022/01/11 08:20:07;;;;;;;;;;;-2.70;97.20;;;;;;5017603;28;19913;-93
2022/01/11 08:22:33;;;;;;;;;;;-2.70;97.00;;;;;;5017720;28;19920;-89
2022/01/11 08:24:59;;;;;;;;;;;-2.80;96.30;;;;;;5017875;28;19910;-91
2022/01/11 08:27:24;;;;;;;;;;;-2.80;97.20;;;;;;5034714;28;19971;-92
2022/01/11 08:29:50;;;;;;;;;;;-2.80;97.10;;;;;;5017821;28;19963;-91
2022/01/11 08:32:16;;;;;;;;;;;-2.70;97.30;;;;;;5017052;28;19909;-91
2022/01/11 08:34:42;;;;;;;;;;;-2.70;96.30;;;;;;5017112;28;19909;-90
2022/01/11 08:37:08;;;;;;;;;;;-2.70;95.70;;;;;;5017040;28;19909;-89
2022/01/11 08:39:34;;;;;;;;;;;-2.70;94.30;;;;;;5017033;28;19917;-91
2022/01/11 08:42:00;;;;;;;;;;;-2.70;94.90;;;;;;5020926;28;19909;-91
2022/01/11 08:44:26;;;;;;;;;;;-2.60;95.50;;;;;;5039343;28;20107;-89
2022/01/11 08:46:52;;;;;;;;;;;-2.60;94.10;;;;;;5021474;28;19947;-91
2022/01/11 08:49:18;;;;;;;;;;;-2.60;93.90;;;;;;5022132;28;20287;-91
2022/01/11 08:51:44;;;;;;;;;;;-2.60;94.40;;;;;;5022432;28;20314;-91
2022/01/11 08:54:11;;;;;;;;;;;-2.60;94.10;;;;;;5021182;28;19913;-92
2022/01/11 08:56:37;;;;;;;;;;;-2.60;93.50;;;;;;5021339;28;20383;-90
2022/01/11 08:59:03;;;;;;;;;;;-2.60;93.80;;;;;;5020910;28;20015;-90
2022/01/11 09:01:31;;;;;;;;;;;-2.60;94.10;;;;;;5020590;28;19944;-90
2022/01/11 09:03:57;;;;;;;;;;;-2.70;94.50;;;;;;5021413;28;19909;-90
2022/01/11 09:06:23;;;;;;;;;;;-2.60;95.00;;;;;;5021227;28;19913;-90
2022/01/11 09:08:50;;;;;;;;;;;-2.70;94.10;;;;;;5038191;28;19917;-90
2022/01/11 09:11:15;;;;;;;;;;;-2.60;94.10;;;;;;5021480;28;19909;-91
2022/01/11 09:13:41;;;;;;;;;;;-2.60;93.50;;;;;;5020706;28;20009;-90
2022/01/11 09:16:07;;;;;;;;;;;-2.60;93.00;;;;;;5020664;28;19921;-90
2022/01/11 09:18:33;;;;;;;;;;;-2.60;93.10;;;;;;5020576;28;19913;-90
2022/01/11 09:21:00;;;;;;;;;;;-2.60;93.70;;;;;;5020837;28;19909;-90
2022/01/11 09:23:29;;;;;;;;;;;-2.60;93.60;;;;;;5020248;28;19909;-90
2022/01/11 09:25:55;;;;;;;;;;;-2.60;92.40;;;;;;5020917;28;20297;-90
2022/01/11 09:28:21;;;;;;;;;;;-2.50;93.30;;;;;;5020473;28;19936;-91
2022/01/11 09:30:49;;;;;;;;;;;-2.50;92.30;;;;;;5020714;28;20360;-91
2022/01/11 09:33:17;;;;;;;;;;;-2.50;91.80;;;;;;5020908;28;19915;-90
2022/01/11 09:35:45;;;;;;;;;;;-2.60;92.70;;;;;;5021079;28;19954;-90
2022/01/11 09:38:11;;;;;;;;;;;-2.60;93.10;;;;;;5020658;28;19916;-91
2022/01/11 09:40:37;;;;;;;;;;;-2.60;92.80;;;;;;5021493;28;20016;-91
2022/01/11 09:43:02;;;;;;;;;;;-2.60;92.60;;;;;;5020716;28;19919;-90
2022/01/11 09:45:28;;;;;;;;;;;-2.70;92.60;;;;;;5020409;28;19909;-89
2022/01/11 09:47:56;;;;;;;;;;;-2.70;92.60;;;;;;5020443;28;19913;-91
2022/01/11 09:50:22;;;;;;;;;;;-2.70;92.40;;;;;;5021280;28;19962;-89
2022/01/11 09:52:48;;;;;;;;;;;-2.70;93.50;;;;;;5020214;28;19909;-91
2022/01/11 09:55:14;;;;;;;;;;;-2.60;92.70;;;;;;5020083;28;20000;-92
2022/01/11 09:57:40;;;;;;;;;;;-2.60;92.50;;;;;;5019999;28;19936;-91
2022/01/11 10:00:07;;;;;;;;;;;-2.60;92.70;;;;;;5020365;28;19916;-91
2022/01/11 10:02:33;;;;;;;;;;;-2.50;93.10;;;;;;5020276;28;20280;-90
2022/01/11 10:05:01;;;;;;;;;;;-2.40;92.10;;;;;;5019534;28;19936;-86
2022/01/11 10:07:30;;;;;;;;;;;-2.40;92.00;;;;;;5022044;28;20598;-89
2022/01/11 10:09:56;;;;;;;;;;;-2.30;92.30;;;;;;5041086;28;19939;-92
2022/01/11 10:12:22;;;;;;;;;;;-2.20;92.50;;;;;;5044997;28;19932;-92
2022/01/11 10:14:52;;;;;;;;;;;-2.20;91.30;;;;;;5045876;28;19980;-93
2022/01/11 10:17:22;;;;;;;;;;;-2.10;91.10;;;;;;5048976;28;19909;-94
2022/01/11 10:19:49;;;;;;;;;;;-2.00;90.40;;;;;;5048293;28;19992;-96
2022/01/11 10:22:21;;;;;;;;;;;-2.00;90.30;;;;;;5065720;28;19915;-95
2022/01/11 10:24:51;;;;;;;;;;;-2.00;90.30;;;;;;5048739;28;19909;-94
2022/01/11 10:27:25;;;;;;;;;;;-1.90;90.50;;;;;;5046501;28;19948;-94
2022/01/11 10:29:59;;;;;;;;;;;-1.90;88.10;;;;;;5050501;28;19923;-94
2022/01/11 10:32:30;;;;;;;;;;;-1.90;90.00;;;;;;5048891;28;19909;-93
2022/01/11 10:34:57;;;;;;;;;;;-2.00;86.30;;;;;;5044195;28;19978;-93
2022/01/11 10:37:31;;;;;;;;;;;-2.00;84.60;;;;;;5045794;28;19920;-95
2022/01/11 10:40:18;;;;;;;;;;;-2.00;86.70;;;;;;5047981;28;19915;-93
2022/01/11 10:42:49;;;;;;;;;;;-2.00;87.30;;;;;;5048220;28;19909;-94
2022/01/11 10:45:18;;;;;;;;;;;-2.00;86.50;;;;;;5047240;28;19977;-92
2022/01/11 10:47:47;;;;;;;;;;;-2.00;86.70;;;;;;5047325;28;19909;-94
2022/01/11 10:50:15;;;;;;;;;;;-1.90;86.30;;;;;;5067559;28;19923;-92
2022/01/11 10:52:42;;;;;;;;;;;-1.90;85.70;;;;;;5068312;28;19908;-93
2022/01/11 10:55:11;;;;;;;;;;;-1.90;83.40;;;;;;5062976;28;19909;-94
2022/01/11 10:57:38;;;;;;;;;;;-1.90;83.80;;;;;;5046910;28;19913;-93
2022/01/11 11:00:12;;;;;;;;;;;-1.80;84.60;;;;;;5047763;28;19940;-94
2022/01/11 11:02:42;;;;;;;;;;;-1.80;84.90;;;;;;5045590;28;20372;-95
2022/01/11 11:05:12;;;;;;;;;;;-1.70;84.20;;;;;;5044836;28;19908;-94
2022/01/11 11:07:41;;;;;;;;;;;-1.70;85.10;;;;;;5041216;28;19955;-94
2022/01/11 11:10:15;;;;;;;;;;;-1.70;83.70;;;;;;5042173;28;19921;-94
2022/01/11 11:12:41;;;;;;;;;;;-1.70;84.10;;;;;;5046223;28;19950;-94
2022/01/11 11:15:09;;;;;;;;;;;-1.80;83.90;;;;;;5045013;28;19917;-94
2022/01/11 11:17:37;;;;;;;;;;;-1.80;83.60;;;;;;5047643;28;19924;-95
2022/01/11 11:20:10;;;;;;;;;;;-1.80;84.10;;;;;;5046267;28;19917;-95
2022/01/11 11:22:52;;;;;;;;;;;-1.80;83.10;;;;;;5038432;28;19963;-94
2022/01/11 11:25:25;;;;;;;;;;;-1.80;83.90;;;;;;5028038;28;19913;-93
2022/01/11 11:28:00;;;;;;;;;;;-1.80;83.80;;;;;;5048286;28;19920;-92
2022/01/11 11:30:26;;;;;;;;;;;-1.80;83.10;;;;;;5041980;28;19947;-94
2022/01/11 11:33:17;;;;;;;;;;;-1.80;84.50;;;;;;5049418;28;19913;-94
2022/01/11 11:39:02;;;;;;;;;;;-1.80;83.20;;;;;;5060949;28;19909;-93
2022/01/11 11:44:24;;;;;;;;;;;-1.60;86.20;;;;;;5046435;28;19959;-93
2022/01/11 11:46:55;;;;;;;;;;;-1.50;84.90;;;;;;5042674;28;20099;-93
2022/01/11 11:49:48;;;;;;;;;;;-1.50;85.60;;;;;;5059607;28;19948;-94
2022/01/11 11:52:41;;;;;;;;;;;-1.40;84.80;;;;;;5039283;28;20905;-95
2022/01/11 11:59:05;;;;;;;;;;;-1.30;82.60;;;;;;4988927;28;19929;-93
2022/01/11 12:01:58;;;;;;;;;;;-1.40;84.60;;;;;;4941420;29;20422;-93
2022/01/11 12:04:42;;;;;;;;;;;-1.40;85.10;;;;;;4947976;29;19915;-93
2022/01/11 12:07:51;;;;;;;;;;;;;;;;;;;;;
2022/01/11 12:10:54;;;;;;;;;;;-1.50;85.50;;;;;;4943454;29;19982;-93
2022/01/11 12:16:45;;;;;;;;;;;-1.50;84.40;;;;;;4919973;29;20029;-94
2022/01/11 12:19:37;;;;;;;;;;;-1.50;86.60;;;;;;4974964;28;19915;-93
2022/01/11 12:22:21;;;;;;;;;;;-1.50;85.80;;;;;;4973343;28;20005;-92
2022/01/11 12:25:08;;;;;;;;;;;;;;;;;;;;;
2022/01/11 12:34:43;;;;;;;;;;;-1.50;85.30;;;;;;4921652;29;19911;-93
2022/01/11 12:40:38;;;;;;;;;;;-1.50;84.40;;;;;;4909765;29;20462;-94
2022/01/11 12:43:42;;;;;;;;;;;-1.50;84.50;;;;;;4906563;29;19918;-93
2022/01/11 12:47:00;;;;;;;;;;;;;;;;;;;;;
2022/01/11 12:49:40;;;;;;;;;;;-1.50;80.50;;;;;;4993889;28;19989;-93
2022/01/11 12:52:10;;;;;;;;;;;-1.50;80.40;;;;;;4984946;28;20013;-92
2022/01/11 12:54:58;;;;;;;;;;;-1.60;79.00;;;;;;4951302;28;20014;-93
2022/01/11 12:57:28;;;;;;;;;;;-1.60;81.40;;;;;;4984677;28;19914;-93
2022/01/11 13:00:21;;;;;;;;;;;-1.60;81.50;;;;;;5000248;28;19914;-94
2022/01/11 13:02:52;;;;;;;;;;;-1.60;80.90;;;;;;4983760;28;19917;-93
2022/01/11 13:05:45;;;;;;;;;;;-1.60;81.00;;;;;;4983718;28;19910;-94
2022/01/11 13:08:31;;;;;;;;;;;-1.70;80.30;;;;;;5032268;28;19910;-92
2022/01/11 13:11:14;;;;;;;;;;;-1.70;79.80;;;;;;5035647;28;19925;-95
2022/01/11 13:13:53;;;;;;;;;;;-1.80;80.20;;;;;;5051044;28;20287;-93
2022/01/11 13:16:27;;;;;;;;;;;-1.80;78.90;;;;;;5037298;28;19989;-93
2022/01/11 13:19:20;;;;;;;;;;;-1.80;82.20;;;;;;5038087;28;19916;-93
2022/01/11 13:21:51;;;;;;;;;;;-1.80;80.60;;;;;;5055929;28;19909;-92
2022/01/11 13:24:25;;;;;;;;;;;-1.80;81.90;;;;;;5038257;28;19959;-91
2022/01/11 13:26:54;;;;;;;;;;;-1.80;82.90;;;;;;5040666;28;19956;-94
2022/01/11 13:29:29;;;;;;;;;;;-1.70;83.40;;;;;;5058174;28;20344;-91
2022/01/11 13:31:56;;;;;;;;;;;-1.80;84.50;;;;;;5060385;28;19913;-92
2022/01/11 13:34:25;;;;;;;;;;;-1.80;87.30;;;;;;5043672;28;19909;-91
2022/01/11 13:37:00;;;;;;;;;;;-1.80;87.90;;;;;;5046067;28;19956;-92
2022/01/11 13:39:35;;;;;;;;;;;-1.80;88.60;;;;;;5067634;28;19901;-93
2022/01/11 13:42:03;;;;;;;;;;;-1.80;88.20;;;;;;5077223;28;19985;-92
2022/01/11 13:44:37;;;;;;;;;;;-1.80;87.20;;;;;;5058195;28;19913;-93
2022/01/11 13:47:16;;;;;;;;;;;-1.90;88.10;;;;;;5071861;28;19951;-94
2022/01/11 13:49:59;;;;;;;;;;;-1.90;89.10;;;;;;5073562;28;19972;-96
2022/01/11 13:52:26;;;;;;;;;;;-1.90;88.50;;;;;;5046453;28;19920;-96
2022/01/11 13:54:59;;;;;;;;;;;-1.90;89.10;;;;;;5042555;28;19909;-94
2022/01/11 13:57:29;;;;;;;;;;;-1.80;89.90;;;;;;5042263;28;19939;-93
2022/01/11 14:00:00;;;;;;;;;;;-1.80;89.30;;;;;;5043463;28;19920;-93
2022/01/11 14:02:37;;;;;;;;;;;-1.80;87.60;;;;;;5040644;28;19965;-94
2022/01/11 14:05:16;;;;;;;;;;;-1.80;86.30;;;;;;5038012;28;19924;-93
2022/01/11 14:08:06;;;;;;;;;;;-1.90;88.80;;;;;;5043115;28;20007;-92
2022/01/11 14:10:36;;;;;;;;;;;-1.80;90.10;;;;;;5040736;28;19923;-94
2022/01/11 14:13:16;;;;;;;;;;;-1.70;91.10;;;;;;5039597;28;19912;-93
2022/01/11 14:15:46;;;;;;;;;;;-1.80;91.70;;;;;;5054568;28;19979;-95
2022/01/11 14:18:15;;;;;;;;;;;-1.70;92.30;;;;;;5035087;28;19921;-94
2022/01/11 14:21:06;;;;;;;;;;;-1.70;93.50;;;;;;5043685;28;20367;-93
2022/01/11 14:23:41;;;;;;;;;;;-1.70;94.00;;;;;;5030682;28;19924;-93
2022/01/11 14:26:12;;;;;;;;;;;-1.80;95.10;;;;;;5046658;28;19909;-93
2022/01/11 14:28:41;;;;;;;;;;;-1.90;95.20;;;;;;5037193;28;19936;-93
2022/01/11 14:31:16;;;;;;;;;;;-1.80;94.80;;;;;;5036956;28;20007;-92
2022/01/11 14:33:44;;;;;;;;;;;-1.80;95.80;;;;;;5037875;28;19913;-94
2022/01/11 14:36:21;;;;;;;;;;;-1.90;95.90;;;;;;5035807;28;19943;-92
2022/01/11 14:39:01;;;;;;;;;;;-1.90;96.50;;;;;;5038197;28;19910;-92
2022/01/11 14:41:54;;;;;;;;;;;-1.80;95.50;;;;;;5042961;28;19909;-92
2022/01/11 14:44:42;;;;;;;;;;;-1.90;95.80;;;;;;5044254;28;19909;-94
2022/01/11 14:47:26;;;;;;;;;;;-1.80;95.50;;;;;;5044233;28;20074;-95
2022/01/11 14:50:11;;;;;;;;;;;-1.80;95.80;;;;;;5039896;28;19913;-93
2022/01/11 14:52:57;;;;;;;;;;;-1.90;95.70;;;;;;5044363;28;19975;-94
2022/01/11 14:55:47;;;;;;;;;;;-1.90;95.60;;;;;;5044621;28;19932;-94
2022/01/11 14:58:23;;;;;;;;;;;-1.90;95.40;;;;;;5041430;28;19929;-92
2022/01/11 15:01:09;;;;;;;;;;;-1.90;95.60;;;;;;5039763;28;20353;-93